Time;durP1;ratioP1;P1;durP2;ratioP2;P2;SDS_P1;SDS_P2;PMS_P1;PMS_P2;Temp;Humidity;BMP_temperature;BMP_pressure;BME280_temperature;BME280_humidity;BME280_pressure;Samples;Min_cycle;Max_cycle;Signal;HPM_P1;HPM_P2
2021/09/12 00:01:23;;;;;;;8.23;6.10;;;13.60;99.90;;;14.71;64.19;94469.78;5036952;28;20209;-70
2021/09/12 00:03:50;;;;;;;6.33;5.60;;;;;;;14.71;64.25;94475.13;5004122;28;20256;-70
2021/09/12 00:06:16;;;;;;;7.00;6.40;;;13.50;99.90;;;14.56;64.41;94468.03;5017194;28;20219;-71
2021/09/12 00:08:42;;;;;;;7.80;6.87;;;14.50;99.90;;;14.55;64.41;94465.63;5015480;28;20201;-70
2021/09/12 00:11:08;;;;;;;10.97;7.23;;;;;;;14.51;64.74;94467.22;5002488;28;20235;-71
2021/09/12 00:13:36;;;;;;;10.07;7.47;;;13.70;99.90;;;14.50;64.70;94471.00;5020848;28;20257;-70
2021/09/12 00:16:02;;;;;;;10.13;7.70;;;13.00;99.90;;;14.48;64.85;94465.13;5015280;28;20280;-70
2021/09/12 00:18:30;;;;;;;8.87;7.20;;;12.50;99.90;;;14.51;64.91;94472.56;5026826;28;20200;-71
2021/09/12 00:20:56;;;;;;;7.30;6.53;;;14.00;99.90;;;14.49;64.91;94472.06;5029783;28;20212;-70
2021/09/12 00:23:22;;;;;;;7.33;6.73;;;14.20;99.90;;;14.44;64.90;94458.75;5026903;28;20221;-70
2021/09/12 00:25:50;;;;;;;7.40;6.60;;;13.70;99.90;;;14.34;64.99;94465.72;5042595;28;20383;-69
2021/09/12 00:28:16;;;;;;;7.50;6.77;;;14.10;99.90;;;14.24;65.23;94468.38;5015500;28;20208;-70
2021/09/12 00:30:42;;;;;;;11.17;7.17;;;13.70;99.90;;;14.29;65.32;94459.59;5015027;28;20216;-71
2021/09/12 00:33:08;;;;;;;10.53;6.70;;;;;;;14.34;65.39;94467.56;5036371;28;20297;-71
2021/09/12 00:35:34;;;;;;;11.73;6.63;;;13.60;99.90;;;14.38;65.42;94472.09;5026731;28;20304;-71
2021/09/12 00:38:03;;;;;;;6.93;6.33;;;14.20;99.90;;;14.37;65.62;94467.81;5021631;28;20235;-71
2021/09/12 00:40:31;;;;;;;7.07;6.30;;;14.20;99.90;;;14.31;65.75;94468.91;5030106;28;20201;-71
2021/09/12 00:42:57;;;;;;;7.03;6.43;;;14.00;99.90;;;14.32;65.95;94461.69;5017456;28;20208;-70
2021/09/12 00:45:27;;;;;;;7.00;5.87;;;13.70;99.90;;;14.29;65.78;94465.72;5031546;28;20559;-71
2021/09/12 00:47:56;;;;;;;7.27;6.57;;;13.80;99.90;;;14.24;65.70;94457.72;5023884;28;20280;-71
2021/09/12 00:50:22;;;;;;;10.70;6.67;;;14.10;99.90;;;14.20;65.97;94458.56;5029190;28;20250;-71
2021/09/12 00:52:50;;;;;;;7.40;6.13;;;13.90;99.90;;;14.20;65.87;94455.91;5009882;28;20196;-70
2021/09/12 00:55:20;;;;;;;7.20;6.33;;;14.20;99.90;;;14.12;66.20;94451.91;5027606;28;20203;-70
2021/09/12 00:57:47;;;;;;;7.00;6.30;;;13.20;99.90;;;14.08;66.22;94456.19;5026240;28;20694;-70
2021/09/12 01:00:14;;;;;;;6.83;6.23;;;14.10;99.90;;;14.08;66.00;94456.19;5010615;28;20873;-70
2021/09/12 01:02:40;;;;;;;6.87;5.73;;;13.90;99.90;;;14.12;66.15;94448.44;5018028;28;20201;-70
2021/09/12 01:05:08;;;;;;;7.30;5.77;;;13.70;99.90;;;14.09;66.20;94457.00;5016906;28;20287;-70
2021/09/12 01:07:34;;;;;;;7.47;5.83;;;12.50;99.90;;;14.07;66.33;94443.16;5032738;28;20208;-70
2021/09/12 01:10:03;;;;;;;8.93;6.17;;;13.10;99.90;;;14.04;66.67;94449.00;5009234;28;20548;-69
2021/09/12 01:12:31;;;;;;;8.43;7.63;;;12.90;99.90;;;13.93;66.38;94447.47;5018565;28;20271;-74
2021/09/12 01:14:59;;;;;;;9.20;7.03;;;13.00;99.90;;;13.90;66.53;94446.09;4998542;28;20193;-73
2021/09/12 01:17:27;;;;;;;7.60;6.80;;;13.00;99.90;;;13.92;66.77;94445.84;5018354;28;20668;-74
2021/09/12 01:19:55;;;;;;;8.77;7.83;;;13.00;99.90;;;13.85;66.90;94446.13;5006007;28;20533;-74
2021/09/12 01:22:21;;;;;;;9.00;8.03;;;13.20;99.90;;;13.80;66.83;94436.28;5029603;28;20577;-74
2021/09/12 01:24:52;;;;;;;10.07;8.70;;;12.90;99.90;;;13.81;66.71;94437.88;4990236;28;20314;-73
2021/09/12 01:27:18;;;;;;;13.13;9.20;;;13.30;99.90;;;13.79;66.90;94436.56;5014160;28;20184;-73
2021/09/12 01:29:47;;;;;;;11.53;9.60;;;12.80;99.90;;;13.75;67.06;94425.66;5013356;28;20631;-73
2021/09/12 01:32:15;;;;;;;10.30;9.27;;;14.30;99.90;;;13.80;67.14;94427.50;5019159;28;20180;-73
2021/09/12 01:34:41;;;;;;;8.47;7.57;;;;;;;13.79;67.13;94429.38;5028820;28;20200;-73
2021/09/12 01:37:09;;;;;;;9.20;8.30;;;12.80;99.90;;;13.78;67.19;94426.97;5038654;28;20239;-74
2021/09/12 01:39:35;;;;;;;8.77;7.87;;;12.50;99.90;;;13.77;67.44;94428.84;5009377;28;20214;-73
2021/09/12 01:42:04;;;;;;;9.60;6.70;;;12.80;99.90;;;13.76;67.16;94424.59;5034403;28;20223;-75
2021/09/12 01:44:32;;;;;;;12.57;7.90;;;12.80;99.90;;;13.72;67.26;94428.06;5015175;28;20311;-73
2021/09/12 01:46:58;;;;;;;8.13;7.33;;;12.90;99.90;;;13.67;67.66;94422.72;4996341;28;20198;-73
2021/09/12 01:49:24;;;;;;;8.47;7.67;;;12.90;99.90;;;13.59;67.37;94418.78;5008969;28;20188;-73
2021/09/12 01:51:51;;;;;;;10.37;7.10;;;12.80;99.90;;;13.56;67.70;94415.84;5019035;28;20220;-73
2021/09/12 01:54:18;;;;;;;7.80;7.10;;;;;;;13.56;67.77;94424.66;5013726;28;20192;-73
2021/09/12 01:56:44;;;;;;;7.00;6.07;;;12.90;99.90;;;13.59;67.61;94415.31;5015968;28;20279;-73
2021/09/12 01:59:12;;;;;;;7.77;6.97;;;12.60;99.90;;;13.57;67.80;94425.41;5039245;28;20206;-73
2021/09/12 02:01:38;;;;;;;8.63;7.23;;;12.60;99.90;;;13.59;67.97;94424.09;4999062;28;20643;-73
2021/09/12 02:04:04;;;;;;;7.10;6.40;;;12.70;99.90;;;13.61;67.98;94421.16;5042294;28;20216;-73
2021/09/12 02:06:32;;;;;;;6.47;5.70;;;12.60;99.90;;;13.63;68.23;94432.34;5014321;28;20201;-73
2021/09/12 02:08:58;;;;;;;8.13;6.00;;;12.50;99.90;;;13.62;68.29;94412.91;5042280;28;20510;-73
2021/09/12 02:11:24;;;;;;;7.50;6.17;;;;;;;13.55;68.01;94414.25;5015792;28;20243;-74
2021/09/12 02:13:50;;;;;;;7.43;6.47;;;12.90;99.90;;;13.55;68.50;94419.56;5030086;28;20204;-73
2021/09/12 02:16:17;;;;;;;7.10;6.50;;;12.30;99.90;;;13.53;68.20;94422.50;5017445;28;20215;-74
2021/09/12 02:18:43;;;;;;;8.43;6.57;;;12.80;99.90;;;13.50;68.39;94415.03;5015825;28;20265;-73
2021/09/12 02:21:14;;;;;;;8.20;6.70;;;12.70;99.90;;;13.54;68.12;94423.31;5018857;28;20278;-71
2021/09/12 02:23:40;;;;;;;6.80;6.20;;;12.60;99.90;;;13.50;68.62;94414.28;5012004;28;20263;-71
2021/09/12 02:26:06;;;;;;;7.87;6.33;;;12.10;99.90;;;13.48;68.66;94419.84;5032516;28;20735;-71
2021/09/12 02:28:34;;;;;;;7.47;6.20;;;12.50;99.90;;;13.61;68.36;94429.16;5024389;28;20283;-71
2021/09/12 02:31:00;;;;;;;7.07;6.17;;;12.80;99.90;;;13.55;68.66;94408.94;5014788;28;20197;-70
2021/09/12 02:33:26;;;;;;;8.40;6.27;;;12.50;99.90;;;13.55;68.71;94411.59;5012917;28;20220;-70
2021/09/12 02:35:52;;;;;;;6.07;5.47;;;12.50;99.90;;;13.47;68.91;94404.94;5007043;28;20208;-71
2021/09/12 02:38:20;;;;;;;6.70;5.77;;;13.00;99.90;;;13.44;69.02;94407.34;5025911;28;20207;-71
2021/09/12 02:40:48;;;;;;;7.00;6.33;;;12.20;99.90;;;13.36;69.01;94406.03;5013372;28;20196;-71
2021/09/12 02:43:14;;;;;;;7.30;6.53;;;12.40;99.90;;;13.35;68.72;94405.25;5007659;28;20220;-71
2021/09/12 02:45:39;;;;;;;10.27;7.37;;;12.40;99.90;;;13.29;69.25;94402.84;5004125;28;20199;-70
2021/09/12 02:48:06;;;;;;;8.57;6.97;;;;;;;13.28;69.15;94411.91;5014983;28;20606;-70
2021/09/12 02:50:32;;;;;;;8.33;6.00;;;12.10;99.90;;;13.28;69.26;94398.59;5010361;28;20211;-71
2021/09/12 02:52:58;;;;;;;8.20;6.57;;;11.60;99.90;;;13.27;69.42;94410.28;4989749;28;20558;-71
2021/09/12 02:55:24;;;;;;;6.80;6.07;;;12.20;99.90;;;13.26;68.99;94406.06;5036099;28;20204;-71
2021/09/12 02:57:50;;;;;;;8.53;7.40;;;12.50;99.90;;;13.22;69.02;94405.00;5013801;28;20717;-69
2021/09/12 03:00:19;;;;;;;9.17;8.33;;;11.60;99.90;;;13.21;69.43;94401.53;5015292;28;20278;-71
2021/09/12 03:02:45;;;;;;;12.07;9.63;;;12.30;99.90;;;13.21;69.12;94403.38;5022284;28;20188;-72
2021/09/12 03:05:11;;;;;;;10.23;8.80;;;12.40;99.90;;;13.24;69.39;94398.31;5022182;28;20244;-71
2021/09/12 03:07:37;;;;;;;9.73;8.43;;;12.30;99.90;;;13.31;69.51;94403.38;5027434;28;20203;-71
2021/09/12 03:10:06;;;;;;;7.30;6.50;;;12.40;99.90;;;13.25;69.49;94399.94;4996476;28;20667;-71
2021/09/12 03:12:34;;;;;;;7.60;6.80;;;12.90;99.90;;;13.13;69.68;94396.72;4987977;28;20559;-71
2021/09/12 03:15:00;;;;;;;8.87;6.87;;;12.20;99.90;;;13.10;69.96;94401.78;5016421;28;20197;-71
2021/09/12 03:17:26;;;;;;;8.50;7.60;;;12.00;99.90;;;13.05;69.59;94399.13;5026206;28;20218;-71
2021/09/12 03:19:52;;;;;;;11.20;8.30;;;12.10;99.90;;;13.02;69.62;94400.47;5018069;28;20193;-71
2021/09/12 03:22:18;;;;;;;8.97;7.67;;;12.00;99.90;;;13.04;69.67;94392.19;5027475;28;20184;-71
2021/09/12 03:24:44;;;;;;;7.83;7.00;;;12.00;99.90;;;13.12;69.76;94402.34;5022111;28;20270;-71
2021/09/12 03:27:10;;;;;;;10.37;7.43;;;11.70;99.90;;;13.13;70.15;94399.41;5011110;28;20196;-71
2021/09/12 03:29:36;;;;;;;8.77;7.70;;;;;;;13.10;70.02;94396.47;5011995;28;20278;-70
2021/09/12 03:32:05;;;;;;;12.33;9.20;;;12.50;99.90;;;13.07;70.04;94392.47;5011064;28;20199;-70
2021/09/12 03:34:33;;;;;;;12.03;8.87;;;;;;;13.11;70.19;94396.22;5002647;28;20200;-70
2021/09/12 03:36:59;;;;;;;13.87;8.87;;;11.70;99.90;;;13.16;70.42;94393.53;5033527;28;20205;-71
2021/09/12 03:39:25;;;;;;;9.77;8.77;;;13.00;99.90;;;13.14;70.23;94390.34;4998025;28;20193;-71
2021/09/12 03:41:51;;;;;;;13.80;9.30;;;12.30;99.90;;;13.16;70.40;94388.22;5014692;28;20208;-70
2021/09/12 03:44:17;;;;;;;11.97;9.07;;;12.20;99.90;;;13.16;70.42;94393.53;5022949;28;20790;-70
2021/09/12 03:46:45;;;;;;;8.53;7.67;;;12.90;99.90;;;13.15;70.26;94391.97;5028872;28;20181;-71
2021/09/12 03:49:14;;;;;;;10.70;7.90;;;;;;;13.13;70.29;94388.75;5011168;28;20307;-71
2021/09/12 03:51:43;;;;;;;10.63;8.83;;;12.20;99.90;;;13.11;70.42;94393.56;5006039;28;20192;-74
2021/09/12 03:54:09;;;;;;;10.70;8.63;;;12.10;99.90;;;13.10;70.75;94399.94;5021009;28;20656;-74
2021/09/12 03:56:35;;;;;;;9.13;8.23;;;;;;;13.04;70.40;94390.34;5029442;28;20206;-75
2021/09/12 03:59:01;;;;;;;11.80;8.23;;;12.10;99.90;;;13.04;70.56;94395.66;5010323;28;20756;-74
2021/09/12 04:01:29;;;;;;;9.03;8.13;;;12.00;99.90;;;13.00;70.42;94389.25;5033459;28;20287;-74
2021/09/12 04:03:55;;;;;;;9.23;8.27;;;11.90;99.90;;;13.07;70.54;94396.97;4996954;28;20215;-75
2021/09/12 04:06:20;;;;;;;8.97;8.03;;;11.90;99.90;;;12.99;70.99;94385.03;5005621;28;20546;-75
2021/09/12 04:08:46;;;;;;;10.67;9.07;;;11.60;99.90;;;13.01;70.67;94380.22;5023040;28;20544;-75
2021/09/12 04:11:14;;;;;;;8.57;7.77;;;12.10;99.90;;;12.98;70.62;94372.78;5028144;28;20189;-75
2021/09/12 04:13:40;;;;;;;10.37;7.73;;;12.00;99.90;;;12.97;70.72;94379.16;5044128;28;20637;-74
2021/09/12 04:16:06;;;;;;;12.37;8.30;;;;;;;13.02;71.06;94379.16;5025141;28;20199;-74
2021/09/12 04:18:34;;;;;;;11.10;8.50;;;12.00;99.90;;;12.95;70.88;94383.16;5005773;28;20199;-74
2021/09/12 04:21:00;;;;;;;8.80;7.90;;;11.80;99.90;;;12.93;71.07;94388.72;5045157;28;20196;-74
2021/09/12 04:23:29;;;;;;;10.10;8.30;;;12.00;99.90;;;12.95;71.32;94393.81;5016800;28;20228;-73
2021/09/12 04:25:59;;;;;;;10.50;7.87;;;12.00;99.90;;;12.99;70.91;94393.00;5026087;28;20214;-73
2021/09/12 04:28:25;;;;;;;8.50;7.70;;;;;;;12.98;71.06;94394.06;5015379;28;20644;-71
2021/09/12 04:30:51;;;;;;;10.13;9.00;;;11.80;99.90;;;12.96;70.94;94382.09;5021113;28;20642;-71
2021/09/12 04:33:17;;;;;;;9.70;8.70;;;;;;;12.99;71.26;94387.69;5024893;28;20275;-71
2021/09/12 04:35:43;;;;;;;11.80;9.53;;;12.10;99.90;;;13.01;71.40;94390.88;5026393;28;20197;-73
2021/09/12 04:38:09;;;;;;;11.40;9.67;;;;;;;13.10;71.65;94396.47;4987883;28;21779;-71
2021/09/12 04:40:35;;;;;;;12.43;9.60;;;12.20;99.90;;;13.17;71.27;94395.13;5024771;28;20236;-71
2021/09/12 04:43:01;;;;;;;9.37;8.37;;;12.10;99.90;;;13.25;71.46;94385.81;5015846;28;20235;-71
2021/09/12 04:45:27;;;;;;;11.20;8.53;;;12.90;99.90;;;13.38;71.47;94397.78;5002897;28;20185;-71
2021/09/12 04:47:53;;;;;;;9.80;8.80;;;12.30;99.90;;;13.49;72.00;94402.03;5027624;28;20192;-71
2021/09/12 04:50:19;;;;;;;11.30;9.30;;;12.20;99.90;;;13.60;71.84;94395.59;4996846;28;20223;-71
2021/09/12 04:52:47;;;;;;;12.23;8.50;;;13.10;99.90;;;13.67;71.72;94402.22;4991871;28;20255;-71
2021/09/12 04:55:13;;;;;;;12.37;8.17;;;12.70;99.90;;;13.67;71.89;94402.22;5023879;28;20187;-71
2021/09/12 04:57:39;;;;;;;10.43;8.53;;;12.40;99.90;;;13.63;71.91;94403.81;4993403;28;20191;-71
2021/09/12 05:00:07;;;;;;;10.53;9.33;;;12.50;99.90;;;13.61;71.97;94402.50;5005686;28;20205;-71
2021/09/12 05:02:32;;;;;;;9.40;8.00;;;13.00;99.90;;;13.64;71.78;94409.97;5008086;28;20195;-71
2021/09/12 05:05:00;;;;;;;8.23;7.43;;;12.70;99.90;;;13.63;71.89;94409.16;5014123;28;20225;-71
2021/09/12 05:07:26;;;;;;;9.00;7.47;;;13.30;99.90;;;13.61;72.09;94413.16;5049041;28;20527;-72
2021/09/12 05:09:52;;;;;;;8.40;7.60;;;;;;;13.65;71.93;94412.38;5020332;28;20193;-71
2021/09/12 05:12:18;;;;;;;7.73;7.03;;;12.30;99.90;;;13.67;72.34;94417.41;5025752;28;20200;-71
2021/09/12 05:14:44;;;;;;;10.07;7.53;;;12.80;99.90;;;13.63;72.09;94411.81;5028389;28;20278;-71
2021/09/12 05:17:15;;;;;;;9.17;8.27;;;;;;;13.61;72.24;94411.31;5003324;28;20199;-71
2021/09/12 05:19:42;;;;;;;8.23;7.43;;;12.70;99.90;;;13.60;72.04;94412.38;5021769;28;20204;-71
2021/09/12 05:22:13;;;;;;;8.30;7.50;;;;;;;13.63;72.38;94419.03;4997653;28;20231;-71
2021/09/12 05:24:39;;;;;;;8.50;7.40;;;13.00;99.90;;;13.82;72.16;94428.03;5005560;28;20255;-71
2021/09/12 05:27:06;;;;;;;9.80;8.80;;;;;;;13.90;72.15;94429.34;5028715;28;20208;-71
2021/09/12 05:29:31;;;;;;;10.20;9.20;;;12.80;99.90;;;13.96;72.48;94415.72;5022984;28;20254;-70
2021/09/12 05:31:57;;;;;;;12.00;10.33;;;12.80;99.90;;;14.00;72.37;94414.09;4998972;28;20196;-70
2021/09/12 05:34:25;;;;;;;11.87;9.77;;;13.60;99.90;;;14.06;72.50;94415.69;4995988;28;20197;-70
2021/09/12 05:36:52;;;;;;;13.17;11.77;;;;;;;14.21;72.51;94420.94;5027383;28;20196;-71
2021/09/12 05:39:17;;;;;;;15.53;12.20;;;13.50;99.90;;;14.32;72.42;94421.69;5007172;28;20596;-70
2021/09/12 05:41:46;;;;;;;12.77;10.93;;;13.50;99.90;;;14.31;72.84;94404.91;5011704;28;20201;-71
2021/09/12 05:44:11;;;;;;;11.83;10.63;;;14.10;99.90;;;14.52;72.83;94420.81;4977567;28;20228;-71
2021/09/12 05:46:37;;;;;;;10.70;9.00;;;13.20;99.90;;;14.35;73.06;94416.66;5032054;28;20655;-71
2021/09/12 05:49:03;;;;;;;11.43;10.23;;;13.50;99.90;;;14.60;73.10;94426.38;5025119;28;20195;-71
2021/09/12 05:51:29;;;;;;;10.87;9.77;;;14.00;99.90;;;14.71;73.06;94427.91;5004711;28;20187;-70
2021/09/12 05:53:58;;;;;;;10.67;9.60;;;14.10;99.90;;;14.74;73.00;94426.56;5031914;28;20608;-70
2021/09/12 05:56:23;;;;;;;9.87;8.70;;;14.00;99.90;;;14.78;73.14;94430.25;5033198;28;20188;-71
2021/09/12 05:58:49;;;;;;;11.83;9.63;;;13.70;99.90;;;14.93;73.09;94432.84;5040100;28;20222;-71
2021/09/12 06:01:16;;;;;;;9.90;8.53;;;14.50;99.90;;;14.98;73.16;94431.97;5024426;28;20204;-70
2021/09/12 06:03:41;;;;;;;10.43;8.77;;;14.10;99.90;;;15.12;73.30;94436.41;4994574;28;20394;-71
2021/09/12 06:06:07;;;;;;;11.47;8.93;;;14.30;99.90;;;15.22;73.31;94446.22;5011527;28;20209;-71
2021/09/12 06:08:33;;;;;;;10.17;9.17;;;13.10;99.90;;;15.31;73.24;94442.66;5028958;28;20590;-71
2021/09/12 06:10:59;;;;;;;12.00;8.50;;;15.10;99.90;;;15.55;73.44;94441.94;5009609;28;20224;-71
2021/09/12 06:13:27;;;;;;;9.30;8.50;;;14.40;99.90;;;15.74;73.42;94451.69;5012300;28;20195;-71
2021/09/12 06:15:55;;;;;;;10.37;9.37;;;14.80;99.90;;;16.09;73.45;94453.16;5016364;28;20657;-71
2021/09/12 06:18:21;;;;;;;9.40;8.50;;;15.50;99.90;;;16.50;73.46;94453.47;5012203;28;20591;-73
2021/09/12 06:20:47;;;;;;;8.90;8.10;;;15.90;99.90;;;16.80;73.50;94453.09;5024702;28;20223;-74
2021/09/12 06:23:13;;;;;;;8.07;7.27;;;16.00;99.90;;;16.95;73.71;94433.34;5026791;28;20225;-73
2021/09/12 06:25:41;;;;;;;8.23;7.53;;;16.50;99.90;;;17.22;73.66;94454.09;5012089;28;20743;-70
2021/09/12 06:28:07;;;;;;;7.83;7.13;;;16.20;99.90;;;17.43;73.77;94450.78;5009904;28;20650;-71
2021/09/12 06:30:35;;;;;;;8.77;7.97;;;16.80;99.90;;;17.68;73.65;94456.84;5027779;28;20198;-71
2021/09/12 06:33:01;;;;;;;7.60;6.97;;;17.20;99.90;;;17.88;73.84;94449.25;5010845;28;20221;-71
2021/09/12 06:35:27;;;;;;;8.17;7.30;;;17.30;99.90;;;18.03;73.86;94458.88;4995045;28;20242;-71
2021/09/12 06:37:53;;;;;;;6.63;6.03;;;16.80;99.90;;;18.31;73.67;94455.13;5025033;28;20200;-72
2021/09/12 06:40:18;;;;;;;7.13;6.53;;;18.20;99.90;;;18.56;73.49;94451.16;5027820;28;20223;-71
2021/09/12 06:42:44;;;;;;;8.73;7.93;;;17.60;99.90;;;19.27;73.81;94479.16;4995601;28;20204;-70
2021/09/12 06:45:13;;;;;;;8.33;7.53;;;18.20;99.90;;;19.66;73.70;94462.38;5012161;28;20292;-72
2021/09/12 06:47:41;;;;;;;8.43;7.63;;;18.70;99.90;;;19.91;73.53;94446.38;5008204;28;20703;-72
2021/09/12 06:50:08;;;;;;;8.23;7.43;;;19.20;99.90;;;20.30;73.36;94480.66;4994833;28;20386;-72
2021/09/12 06:52:37;;;;;;;8.40;7.63;;;19.70;99.90;;;20.70;73.38;94448.28;5016422;28;20230;-71
2021/09/12 06:55:03;;;;;;;9.20;8.40;;;19.90;99.90;;;20.16;73.15;94442.22;5022222;28;20216;-73
2021/09/12 06:57:29;;;;;;;8.90;8.00;;;19.90;99.90;;;20.11;73.08;94436.19;5015281;28;20632;-74
2021/09/12 06:59:54;;;;;;;9.33;8.50;;;19.70;99.90;;;19.62;73.07;94442.56;5005836;28;20209;-75
2021/09/12 07:02:20;;;;;;;9.10;8.20;;;19.50;99.90;;;19.83;72.95;94440.97;5014776;28;20282;-74
2021/09/12 07:04:48;;;;;;;9.17;8.20;;;19.70;99.90;;;19.93;72.91;94454.16;5010989;28;20306;-74
2021/09/12 07:07:16;;;;;;;8.40;7.70;;;19.60;99.90;;;20.26;72.69;94460.81;5029764;28;20191;-75
2021/09/12 07:09:42;;;;;;;8.57;7.67;;;20.20;99.90;;;20.36;72.85;94428.25;5008558;28;20206;-74
2021/09/12 07:12:08;;;;;;;9.10;8.13;;;;;;;20.44;72.81;94459.00;5040944;28;20202;-75
2021/09/12 07:14:34;;;;;;;8.70;7.90;;;20.00;99.90;;;20.55;72.51;94462.22;5023133;28;20573;-75
2021/09/12 07:17:03;;;;;;;8.20;7.50;;;20.10;99.90;;;20.98;72.36;94471.19;5011156;28;20562;-70
2021/09/12 07:19:29;;;;;;;8.63;7.87;;;20.70;99.90;;;21.41;72.50;94466.63;5023900;28;20658;-71
2021/09/12 07:21:55;;;;;;;17.23;14.60;;;21.30;99.90;;;21.80;72.06;94462.13;5028693;28;20215;-71
2021/09/12 07:24:20;;;;;;;21.37;16.10;;;21.30;99.90;;;22.31;72.09;94450.41;5023689;28;20219;-71
2021/09/12 07:26:46;;;;;;;13.17;10.73;;;21.80;99.90;;;23.22;72.14;94474.09;5032495;28;20208;-70
2021/09/12 07:29:12;;;;;;;7.53;6.90;;;22.60;99.90;;;23.54;72.00;94434.75;5018500;28;20229;-71
2021/09/12 07:31:38;;;;;;;7.60;6.93;;;23.20;99.90;;;23.22;71.91;94434.31;5031891;28;20196;-71
2021/09/12 07:34:04;;;;;;;7.73;6.63;;;23.00;99.90;;;22.75;71.30;94400.47;5025948;28;20239;-71
2021/09/12 07:36:30;;;;;;;7.17;6.17;;;22.70;99.90;;;22.34;71.10;94431.66;5013844;28;20243;-71
2021/09/12 07:38:58;;;;;;;7.17;6.57;;;22.90;99.90;;;21.93;71.08;94426.09;5003686;28;20682;-70
2021/09/12 07:41:24;;;;;;;7.07;6.37;;;21.80;99.90;;;21.74;70.77;94434.53;5033229;28;20204;-69
2021/09/12 07:43:55;;;;;;;7.83;6.40;;;21.60;99.90;;;21.27;71.12;94449.00;5023279;28;20582;-70
2021/09/12 07:46:23;;;;;;;7.07;6.47;;;21.10;99.90;;;21.68;71.08;94454.69;5017880;28;20644;-69
2021/09/12 07:48:49;;;;;;;9.47;6.33;;;21.40;99.90;;;22.40;70.81;94510.59;5024880;28;20667;-70
2021/09/12 07:51:15;;;;;;;6.50;5.90;;;21.60;99.90;;;25.26;70.34;94596.28;5027175;28;20192;-70
2021/09/12 07:53:45;;;;;;;5.63;5.23;;;24.10;99.90;;;27.18;70.00;94489.81;5025367;28;20280;-70
2021/09/12 07:56:11;;;;;;;5.77;5.27;;;26.40;99.90;;;28.14;69.54;94492.66;5024763;28;20200;-70
2021/09/12 07:58:39;;;;;;;5.40;5.00;;;27.90;99.90;;;29.23;69.60;94484.78;5021955;28;20204;-71
2021/09/12 08:01:05;;;;;;;5.67;4.83;;;29.20;99.90;;;31.29;68.68;94571.72;5024272;28;20647;-70
2021/09/12 08:03:31;;;;;;;6.23;4.53;;;31.50;99.90;;;30.32;68.51;94444.44;5011571;28;20219;-71
2021/09/12 08:05:57;;;;;;;4.67;4.37;;;31.20;99.90;;;29.71;68.42;94360.16;5036326;28;20200;-71
2021/09/12 08:08:26;;;;;;;4.93;4.60;;;31.10;99.90;;;28.13;68.15;94392.94;4984644;28;20215;-70
2021/09/12 08:10:54;;;;;;;5.13;4.73;;;29.40;99.90;;;26.86;67.52;94469.25;5020062;28;20232;-72
2021/09/12 08:13:20;;;;;;;4.70;4.30;;;27.90;99.90;;;26.86;67.55;94423.75;5011669;28;20205;-70
2021/09/12 08:15:48;;;;;;;4.70;4.40;;;27.70;99.90;;;25.96;67.51;94413.72;5013811;28;20193;-74
2021/09/12 08:18:16;;;;;;;5.57;5.07;;;27.00;99.90;;;26.24;66.88;94440.06;5032709;28;20249;-75
2021/09/12 08:20:45;;;;;;;4.97;4.53;;;27.00;99.90;;;27.50;66.54;94463.28;5029941;28;20254;-75
2021/09/12 08:23:13;;;;;;;4.87;4.37;;;27.80;99.90;;;30.10;66.14;94541.88;5030771;28;20231;-75
2021/09/12 08:25:39;;;;;;;5.07;4.67;;;30.10;99.90;;;29.95;65.61;94460.84;5007418;28;20217;-75
2021/09/12 08:28:05;;;;;;;5.30;4.80;;;30.30;99.90;;;29.19;65.70;94427.38;5013661;28;20250;-75
2021/09/12 08:30:32;;;;;;;4.90;4.50;;;30.10;99.90;;;29.01;65.24;94533.59;5007636;28;20211;-75
2021/09/12 08:32:58;;;;;;;5.20;4.67;;;29.70;99.90;;;28.44;65.32;94389.19;5011297;28;20295;-76
2021/09/12 08:35:24;;;;;;;5.03;4.63;;;29.40;99.90;;;28.80;64.89;94519.63;5031737;28;20722;-75
2021/09/12 08:37:49;;;;;;;4.70;4.40;;;29.50;99.90;;;29.13;64.14;94475.28;5013963;28;20296;-76
2021/09/12 08:40:15;;;;;;;4.40;4.10;;;29.90;99.90;;;29.99;63.67;94465.16;5026388;28;20239;-76
2021/09/12 08:42:43;;;;;;;4.40;4.10;;;30.60;99.90;;;30.26;63.72;94443.97;5013898;28;20644;-75
2021/09/12 08:45:09;;;;;;;4.60;4.30;;;31.50;99.90;;;30.59;63.16;94560.06;4991246;28;20217;-76
2021/09/12 08:47:43;;;;;;;4.20;3.90;;;33.70;99.90;;;31.44;62.64;94414.41;5023040;28;20203;-75
2021/09/12 08:50:13;;;;;;;4.63;4.30;;;32.10;99.90;;;30.92;62.59;94491.53;5007661;28;20184;-75
2021/09/12 08:52:38;;;;;;;4.53;4.13;;;32.80;99.90;;;32.50;62.01;94474.41;5016824;28;20288;-75
2021/09/12 08:55:05;;;;;;;5.03;4.07;;;33.80;95.50;;;31.61;61.89;94421.19;5012323;28;20201;-78
2021/09/12 08:57:31;;;;;;;7.03;3.90;;;33.20;94.80;;;30.43;61.10;94401.53;5014392;28;20236;-78
2021/09/12 08:59:57;;;;;;;4.53;4.23;;;32.10;95.80;;;28.74;61.44;94403.69;4994278;28;20251;-78
2021/09/12 09:02:27;;;;;;;4.00;3.70;;;30.60;96.70;;;28.12;61.33;94462.25;5012784;28;20292;-76
2021/09/12 09:05:03;;;;;;;4.43;4.03;;;29.60;98.10;;;27.27;61.01;94471.34;5011972;28;20218;-79
2021/09/12 09:07:33;;;;;;;4.93;4.53;;;28.50;99.90;;;26.63;60.88;94470.94;5014001;28;20207;-76
2021/09/12 09:10:03;;;;;;;4.57;4.20;;;27.50;99.90;;;27.16;60.55;94483.94;5015009;28;20196;-73
2021/09/12 09:12:38;;;;;;;4.83;4.37;;;27.40;99.90;;;28.26;59.94;94486.25;5013212;28;20196;-73
2021/09/12 09:15:20;;;;;;;4.43;4.13;;;28.50;99.90;;;29.08;59.67;94527.47;5006796;28;20196;-73
2021/09/12 09:17:54;;;;;;;3.90;3.60;;;29.30;99.90;;;30.31;59.44;94593.31;5013480;28;20192;-73
2021/09/12 09:20:32;;;;;;;4.10;3.53;;;30.20;99.90;;;32.08;59.32;94513.47;5043443;28;20269;-74
2021/09/12 09:23:04;;;;;;;3.73;3.43;;;32.00;97.60;;;33.48;58.55;94476.41;5013408;28;20691;-73
2021/09/12 09:25:30;;;;;;;4.63;3.30;;;33.90;94.40;;;32.73;58.04;94328.53;5013969;28;20231;-73
2021/09/12 09:28:06;;;;;;;3.83;3.53;;;34.20;91.40;;;30.99;58.30;94519.78;4985385;28;20208;-73
2021/09/12 09:30:51;;;;;;;6.30;3.67;;;32.50;92.90;;;30.03;57.84;94430.44;5015912;28;20207;-73
2021/09/12 09:33:24;;;;;;;4.53;4.13;;;31.50;94.40;;;29.67;57.78;94463.97;5024781;28;20192;-75
2021/09/12 09:35:58;;;;;;;4.97;3.37;;;30.70;95.50;;;29.40;57.34;94452.31;5005331;28;20263;-76
2021/09/12 09:38:49;;;;;;;3.30;3.10;;;30.50;96.40;;;29.49;57.42;94411.03;5012461;28;20193;-75
2021/09/12 09:41:18;;;;;;;3.53;3.23;;;30.40;96.60;;;28.79;57.26;94438.88;5020913;28;20197;-76
2021/09/12 09:43:52;;;;;;;3.03;2.80;;;29.60;95.80;;;27.09;57.11;94380.34;5006789;28;20356;-77
2021/09/12 09:46:41;;;;;;;3.57;3.27;;;28.20;98.40;;;27.01;56.66;94425.66;5022710;28;20553;-74
2021/09/12 09:49:36;;;;;;;4.07;3.77;;;27.80;99.60;;;26.78;56.87;94456.56;5034008;28;20232;-74
2021/09/12 09:52:03;;;;;;;3.40;3.20;;;27.30;99.30;;;26.12;56.76;94385.78;5025273;28;20568;-73
2021/09/12 09:54:32;;;;;;;4.13;3.73;;;26.60;99.90;;;25.30;56.44;94432.41;5023668;28;20276;-72
2021/09/12 09:57:04;;;;;;;3.80;3.50;;;25.80;99.90;;;24.94;56.38;94438.72;5021728;28;20200;-73
2021/09/12 09:59:32;;;;;;;3.80;3.50;;;25.30;99.90;;;24.73;56.42;94424.47;5009206;28;20203;-72
2021/09/12 10:01:59;;;;;;;4.50;3.13;;;25.00;99.90;;;24.67;56.11;94441.28;5006606;28;20215;-75
2021/09/12 10:04:28;;;;;;;3.33;3.10;;;24.70;99.90;;;25.03;55.89;94457.56;5008239;28;20766;-73
2021/09/12 10:06:56;;;;;;;4.90;3.17;;;24.90;99.90;;;24.76;56.14;94460.94;5007689;28;20196;-73
2021/09/12 10:09:27;;;;;;;4.20;3.63;;;24.50;99.90;;;24.63;56.26;94456.66;5038518;28;20276;-73
2021/09/12 10:12:00;;;;;;;4.13;3.03;;;24.40;99.90;;;24.93;56.04;94464.25;5042104;28;20243;-72
2021/09/12 10:14:52;;;;;;;3.60;3.30;;;24.70;99.90;;;25.19;56.08;94479.34;5027948;28;20204;-73
2021/09/12 10:17:29;;;;;;;3.67;3.37;;;24.90;99.90;;;25.20;55.83;94473.59;5010913;28;20193;-73
2021/09/12 10:20:19;;;;;;;4.27;3.87;;;25.00;99.90;;;24.70;56.00;94451.47;5005740;28;20184;-72
2021/09/12 10:22:59;;;;;;;4.00;3.60;;;24.60;99.90;;;24.72;56.00;94457.31;5005608;28;20291;-76
2021/09/12 10:25:29;;;;;;;4.37;3.37;;;24.20;99.90;;;24.72;55.61;94452.69;5029411;28;20223;-76